SVA721 OEDF-OERK
Flight info
| Callsign | SVA721 |
|---|---|
| Flight time | 0h 44m |
| Altitude | 32000 |
| Route | MIBRA N687 ITUNI |
| Aircraft | B789/H-SDE1E2E3FGHIJ2J3J4J5M1RWXY/LB1D1 |
Departure
| Time | 2026-04-21 14:02 |
|---|---|
| Airport | King Fahd International Airport (OEDF) |
Arrival
| Time | 2026-04-21 14:46 |
|---|---|
| Airport | King Khalid International Airport (OERK) |
| Time | Latitude | Longitude | Altitude | Speed | Heading |
|---|---|---|---|---|---|
| 2026-04-21 13:45 | 26.46158 | 49.79613 | 92 ft | 0 kts | 86° |
| 2026-04-21 13:54 | 26.46157 | 49.79600 | 92 ft | 2 kts | 87° |
| 2026-04-21 13:54 | 26.46157 | 49.79598 | 92 ft | 0 kts | 87° |
| 2026-04-21 13:55 | 26.46156 | 49.79582 | 91 ft | 2 kts | 87° |
| 2026-04-21 13:55 | 26.46156 | 49.79564 | 91 ft | 2 kts | 88° |
| 2026-04-21 13:55 | 26.46157 | 49.79546 | 91 ft | 2 kts | 117° |
| 2026-04-21 13:55 | 26.46166 | 49.79532 | 92 ft | 2 kts | 147° |
| 2026-04-21 13:56 | 26.46176 | 49.79526 | 91 ft | 0 kts | 172° |
| 2026-04-21 13:59 | 26.46160 | 49.79528 | 91 ft | 5 kts | 172° |
| 2026-04-21 13:59 | 26.46108 | 49.79540 | 94 ft | 13 kts | 166° |
| 2026-04-21 13:59 | 26.45979 | 49.79572 | 91 ft | 15 kts | 192° |
| 2026-04-21 13:59 | 26.45928 | 49.79476 | 93 ft | 21 kts | 252° |
| 2026-04-21 14:00 | 26.45828 | 49.79399 | 93 ft | 19 kts | 163° |
| 2026-04-21 14:00 | 26.45655 | 49.79455 | 92 ft | 32 kts | 163° |
| 2026-04-21 14:00 | 26.45428 | 49.79481 | 93 ft | 16 kts | 208° |
| 2026-04-21 14:00 | 26.45427 | 49.79361 | 94 ft | 22 kts | 279° |
| 2026-04-21 14:01 | 26.45456 | 49.79171 | 92 ft | 13 kts | 314° |
| 2026-04-21 14:01 | 26.45557 | 49.79152 | 94 ft | 10 kts | 341° |
| 2026-04-21 14:01 | 26.45569 | 49.79148 | 91 ft | 8 kts | 343° |
| 2026-04-21 14:01 | 26.45817 | 49.79071 | 93 ft | 75 kts | 345° |
| 2026-04-21 14:02 | 26.46619 | 49.78832 | 97 ft | 161 kts | 344° |
| 2026-04-21 14:02 | 26.47769 | 49.78438 | 808 ft | 167 kts | 351° |
| 2026-04-21 14:02 | 26.48855 | 49.78116 | 1961 ft | 163 kts | 345° |
| 2026-04-21 14:03 | 26.51397 | 49.77346 | 3463 ft | 219 kts | 339° |
| 2026-04-21 14:03 | 26.52800 | 49.76534 | 3984 ft | 244 kts | 308° |
| 2026-04-21 14:03 | 26.53382 | 49.74827 | 5276 ft | 235 kts | 275° |
| 2026-04-21 14:03 | 26.53218 | 49.72985 | 6459 ft | 247 kts | 246° |
| 2026-04-21 14:04 | 26.52309 | 49.71376 | 7902 ft | 244 kts | 232° |
| 2026-04-21 14:04 | 26.51232 | 49.69908 | 9352 ft | 246 kts | 231° |
| 2026-04-21 14:04 | 26.50183 | 49.68389 | 10604 ft | 253 kts | 234° |
| 2026-04-21 14:04 | 26.49100 | 49.66716 | 11294 ft | 279 kts | 234° |
| 2026-04-21 14:05 | 26.47911 | 49.64875 | 11943 ft | 306 kts | 234° |
| 2026-04-21 14:05 | 26.46603 | 49.62887 | 12653 ft | 325 kts | 234° |
| 2026-04-21 14:05 | 26.45257 | 49.60853 | 13931 ft | 327 kts | 234° |
| 2026-04-21 14:05 | 26.43885 | 49.58768 | 14766 ft | 339 kts | 235° |
| 2026-04-21 14:06 | 26.42480 | 49.56628 | 15826 ft | 344 kts | 236° |
| 2026-04-21 14:06 | 26.41048 | 49.54450 | 16792 ft | 351 kts | 236° |
| 2026-04-21 14:06 | 26.39587 | 49.52234 | 17763 ft | 358 kts | 237° |
| 2026-04-21 14:06 | 26.38103 | 49.49982 | 18708 ft | 360 kts | 237° |
| 2026-04-21 14:07 | 26.36625 | 49.47742 | 19896 ft | 357 kts | 237° |
| 2026-04-21 14:07 | 26.35173 | 49.45541 | 20960 ft | 356 kts | 237° |
| 2026-04-21 14:07 | 26.33696 | 49.43300 | 21709 ft | 364 kts | 236° |
| 2026-04-21 14:07 | 26.32163 | 49.40974 | 21836 ft | 377 kts | 236° |
| 2026-04-21 14:08 | 26.30616 | 49.38638 | 21837 ft | 373 kts | 236° |
| 2026-04-21 14:08 | 26.29076 | 49.36313 | 21833 ft | 373 kts | 236° |
| 2026-04-21 14:08 | 26.27537 | 49.33983 | 21835 ft | 373 kts | 236° |
| 2026-04-21 14:08 | 26.25998 | 49.31655 | 21837 ft | 373 kts | 236° |
| 2026-04-21 14:09 | 26.24458 | 49.29330 | 21839 ft | 374 kts | 236° |
| 2026-04-21 14:09 | 26.22916 | 49.27003 | 21836 ft | 373 kts | 236° |
| 2026-04-21 14:09 | 26.21377 | 49.24680 | 21833 ft | 372 kts | 236° |
| 2026-04-21 14:09 | 26.19840 | 49.22361 | 21832 ft | 372 kts | 236° |
| 2026-04-21 14:10 | 26.18304 | 49.20045 | 21834 ft | 372 kts | 236° |
| 2026-04-21 14:10 | 26.16767 | 49.17730 | 21832 ft | 371 kts | 236° |
| 2026-04-21 14:10 | 26.15234 | 49.15421 | 21836 ft | 371 kts | 236° |
| 2026-04-21 14:10 | 26.13696 | 49.13106 | 21834 ft | 371 kts | 236° |
| 2026-04-21 14:11 | 26.12159 | 49.10793 | 21832 ft | 372 kts | 236° |
| 2026-04-21 14:11 | 26.10620 | 49.08479 | 21839 ft | 372 kts | 236° |
| 2026-04-21 14:11 | 26.09078 | 49.06162 | 21836 ft | 372 kts | 236° |
| 2026-04-21 14:11 | 26.07541 | 49.03852 | 21836 ft | 371 kts | 236° |
| 2026-04-21 14:12 | 26.06004 | 49.01544 | 21834 ft | 371 kts | 236° |
| 2026-04-21 14:12 | 26.04486 | 48.99266 | 21833 ft | 371 kts | 236° |
| 2026-04-21 14:12 | 26.02948 | 48.96960 | 21832 ft | 371 kts | 236° |
| 2026-04-21 14:12 | 26.01412 | 48.94657 | 21833 ft | 371 kts | 236° |
| 2026-04-21 14:13 | 25.99875 | 48.92354 | 21836 ft | 371 kts | 236° |
| 2026-04-21 14:13 | 25.98334 | 48.90046 | 21836 ft | 372 kts | 236° |
| 2026-04-21 14:13 | 25.96789 | 48.87733 | 21840 ft | 374 kts | 236° |
| 2026-04-21 14:13 | 25.95231 | 48.85401 | 21841 ft | 375 kts | 236° |
| 2026-04-21 14:14 | 25.93807 | 48.82990 | 21843 ft | 373 kts | 240° |
| 2026-04-21 14:14 | 25.92419 | 48.80549 | 21843 ft | 374 kts | 240° |
| 2026-04-21 14:14 | 25.91025 | 48.78115 | 21844 ft | 373 kts | 240° |
| 2026-04-21 14:14 | 25.89636 | 48.75679 | 21845 ft | 373 kts | 240° |
| 2026-04-21 14:15 | 25.88266 | 48.73267 | 21850 ft | 373 kts | 240° |
| 2026-04-21 14:15 | 25.86859 | 48.70797 | 21850 ft | 373 kts | 240° |
| 2026-04-21 14:15 | 25.85484 | 48.68388 | 21850 ft | 373 kts | 240° |
| 2026-04-21 14:15 | 25.84093 | 48.65953 | 21851 ft | 373 kts | 240° |
| 2026-04-21 14:16 | 25.82703 | 48.63516 | 21845 ft | 374 kts | 240° |
| 2026-04-21 14:16 | 25.81310 | 48.61076 | 21847 ft | 374 kts | 240° |
| 2026-04-21 14:16 | 25.79917 | 48.58639 | 21845 ft | 374 kts | 240° |
| 2026-04-21 14:16 | 25.78523 | 48.56202 | 21846 ft | 374 kts | 240° |
| 2026-04-21 14:17 | 25.77128 | 48.53762 | 21846 ft | 374 kts | 240° |
| 2026-04-21 14:17 | 25.75731 | 48.51321 | 21847 ft | 375 kts | 240° |
| 2026-04-21 14:17 | 25.74333 | 48.48881 | 21846 ft | 374 kts | 240° |
| 2026-04-21 14:17 | 25.72938 | 48.46446 | 21846 ft | 373 kts | 240° |
| 2026-04-21 14:18 | 25.71545 | 48.44017 | 21842 ft | 373 kts | 240° |
| 2026-04-21 14:18 | 25.70154 | 48.41593 | 21847 ft | 372 kts | 240° |
| 2026-04-21 14:18 | 25.68778 | 48.39165 | 21846 ft | 371 kts | 243° |
| 2026-04-21 14:18 | 25.67667 | 48.36581 | 21854 ft | 371 kts | 248° |
| 2026-04-21 14:19 | 25.66611 | 48.33967 | 21852 ft | 372 kts | 248° |
| 2026-04-21 14:19 | 25.65565 | 48.31380 | 21854 ft | 372 kts | 248° |
| 2026-04-21 14:19 | 25.64513 | 48.28768 | 21851 ft | 372 kts | 248° |
| 2026-04-21 14:19 | 25.63460 | 48.26152 | 21852 ft | 371 kts | 248° |
| 2026-04-21 14:20 | 25.62406 | 48.23539 | 21850 ft | 371 kts | 248° |
| 2026-04-21 14:20 | 25.61349 | 48.20922 | 21852 ft | 372 kts | 248° |
| 2026-04-21 14:20 | 25.60292 | 48.18306 | 21853 ft | 372 kts | 248° |
| 2026-04-21 14:20 | 25.59237 | 48.15696 | 21852 ft | 372 kts | 248° |
| 2026-04-21 14:21 | 25.58180 | 48.13082 | 21849 ft | 372 kts | 248° |
| 2026-04-21 14:21 | 25.57120 | 48.10464 | 21849 ft | 371 kts | 248° |
| 2026-04-21 14:21 | 25.56064 | 48.07856 | 21849 ft | 371 kts | 248° |
| 2026-04-21 14:21 | 25.55006 | 48.05243 | 21849 ft | 371 kts | 248° |
| 2026-04-21 14:22 | 25.53949 | 48.02638 | 21850 ft | 371 kts | 248° |
| 2026-04-21 14:22 | 25.53021 | 47.99996 | 21767 ft | 365 kts | 255° |
| 2026-04-21 14:22 | 25.52509 | 47.97286 | 20924 ft | 367 kts | 263° |
| 2026-04-21 14:22 | 25.52426 | 47.94446 | 20111 ft | 371 kts | 272° |
| 2026-04-21 14:23 | 25.52784 | 47.91609 | 19567 ft | 373 kts | 281° |
| 2026-04-21 14:23 | 25.53413 | 47.88818 | 18992 ft | 374 kts | 281° |
| 2026-04-21 14:23 | 25.54045 | 47.86018 | 18400 ft | 375 kts | 282° |
| 2026-04-21 14:23 | 25.54686 | 47.83219 | 17750 ft | 376 kts | 282° |
| 2026-04-21 14:24 | 25.55332 | 47.80395 | 16969 ft | 379 kts | 281° |
| 2026-04-21 14:24 | 25.55977 | 47.77557 | 16186 ft | 382 kts | 281° |
| 2026-04-21 14:24 | 25.56619 | 47.74731 | 16021 ft | 371 kts | 281° |
| 2026-04-21 14:24 | 25.57250 | 47.71952 | 16058 ft | 373 kts | 281° |
| 2026-04-21 14:25 | 25.57879 | 47.69181 | 16026 ft | 368 kts | 281° |
| 2026-04-21 14:25 | 25.58500 | 47.66442 | 15424 ft | 367 kts | 281° |
| 2026-04-21 14:25 | 25.59119 | 47.63706 | 14910 ft | 365 kts | 281° |
| 2026-04-21 14:25 | 25.59729 | 47.61014 | 14380 ft | 364 kts | 281° |
| 2026-04-21 14:26 | 25.60342 | 47.58300 | 13902 ft | 362 kts | 281° |
| 2026-04-21 14:26 | 25.60936 | 47.55612 | 13415 ft | 358 kts | 278° |
| 2026-04-21 14:26 | 25.61166 | 47.52886 | 12853 ft | 353 kts | 268° |
| 2026-04-21 14:26 | 25.60916 | 47.50187 | 12341 ft | 349 kts | 257° |
| 2026-04-21 14:27 | 25.60210 | 47.47646 | 12061 ft | 342 kts | 247° |
| 2026-04-21 14:27 | 25.59157 | 47.45293 | 12064 ft | 344 kts | 243° |
| 2026-04-21 14:27 | 25.58057 | 47.42927 | 12066 ft | 345 kts | 243° |
| 2026-04-21 14:27 | 25.56947 | 47.40569 | 12064 ft | 346 kts | 243° |
| 2026-04-21 14:28 | 25.55829 | 47.38207 | 12064 ft | 346 kts | 243° |
| 2026-04-21 14:28 | 25.54709 | 47.35836 | 12066 ft | 348 kts | 243° |
| 2026-04-21 14:28 | 25.53593 | 47.33466 | 12065 ft | 347 kts | 243° |
| 2026-04-21 14:28 | 25.52478 | 47.31103 | 11961 ft | 342 kts | 243° |
| 2026-04-21 14:29 | 25.51379 | 47.28774 | 11006 ft | 344 kts | 242° |
| 2026-04-21 14:29 | 25.50270 | 47.26429 | 10282 ft | 341 kts | 242° |
| 2026-04-21 14:29 | 25.49172 | 47.24109 | 9500 ft | 339 kts | 242° |
| 2026-04-21 14:29 | 25.48082 | 47.21807 | 8691 ft | 337 kts | 242° |
| 2026-04-21 14:30 | 25.47001 | 47.19514 | 7889 ft | 335 kts | 243° |
| 2026-04-21 14:30 | 25.46220 | 47.17059 | 7427 ft | 338 kts | 251° |
| 2026-04-21 14:30 | 25.45442 | 47.14608 | 7108 ft | 337 kts | 249° |
| 2026-04-21 14:30 | 25.44643 | 47.12208 | 6787 ft | 337 kts | 249° |
| 2026-04-21 14:31 | 25.43875 | 47.09765 | 6526 ft | 335 kts | 250° |
| 2026-04-21 14:31 | 25.43126 | 47.07325 | 6207 ft | 335 kts | 250° |
| 2026-04-21 14:31 | 25.42368 | 47.04898 | 6054 ft | 332 kts | 249° |
| 2026-04-21 14:31 | 25.41598 | 47.02483 | 6058 ft | 335 kts | 248° |
| 2026-04-21 14:32 | 25.40495 | 47.00249 | 6057 ft | 330 kts | 236° |
| 2026-04-21 14:32 | 25.39277 | 46.98055 | 6058 ft | 338 kts | 239° |
| 2026-04-21 14:32 | 25.38090 | 46.95844 | 6058 ft | 325 kts | 239° |
| 2026-04-21 14:32 | 25.37002 | 46.93804 | 6037 ft | 286 kts | 239° |
| 2026-04-21 14:33 | 25.36061 | 46.92044 | 6028 ft | 251 kts | 238° |
| 2026-04-21 14:33 | 25.35191 | 46.90427 | 5990 ft | 236 kts | 238° |
| 2026-04-21 14:33 | 25.34349 | 46.88860 | 5316 ft | 244 kts | 238° |
| 2026-04-21 14:33 | 25.33493 | 46.87266 | 5206 ft | 238 kts | 238° |
| 2026-04-21 14:34 | 25.32650 | 46.85697 | 4954 ft | 238 kts | 238° |
| 2026-04-21 14:34 | 25.31806 | 46.84124 | 4721 ft | 238 kts | 238° |
| 2026-04-21 14:34 | 25.30968 | 46.82566 | 4561 ft | 230 kts | 238° |
| 2026-04-21 14:34 | 25.30135 | 46.81012 | 4550 ft | 239 kts | 237° |
| 2026-04-21 14:35 | 25.29290 | 46.79449 | 4546 ft | 234 kts | 238° |
| 2026-04-21 14:35 | 25.28745 | 46.78434 | 4544 ft | 234 kts | 238° |
| 2026-04-21 14:35 | 25.27898 | 46.76858 | 4544 ft | 238 kts | 237° |
| 2026-04-21 14:35 | 25.26788 | 46.74797 | 4541 ft | 239 kts | 237° |
| 2026-04-21 14:36 | 25.26208 | 46.73725 | 4539 ft | 238 kts | 238° |
| 2026-04-21 14:36 | 25.25378 | 46.72173 | 4528 ft | 236 kts | 239° |
| 2026-04-21 14:36 | 25.24888 | 46.70422 | 4537 ft | 244 kts | 264° |
| 2026-04-21 14:36 | 25.25154 | 46.68614 | 4537 ft | 242 kts | 290° |
| 2026-04-21 14:37 | 25.26155 | 46.67085 | 4536 ft | 253 kts | 317° |
| 2026-04-21 14:37 | 25.27640 | 46.66034 | 4556 ft | 256 kts | 326° |
| 2026-04-21 14:37 | 25.29157 | 46.64989 | 4548 ft | 253 kts | 314° |
| 2026-04-21 14:37 | 25.29939 | 46.63417 | 4550 ft | 229 kts | 275° |
| 2026-04-21 14:38 | 25.29926 | 46.61701 | 4549 ft | 220 kts | 257° |
| 2026-04-21 14:38 | 25.29528 | 46.60078 | 4540 ft | 214 kts | 251° |
| 2026-04-21 14:38 | 25.29109 | 46.58489 | 4127 ft | 219 kts | 253° |
| 2026-04-21 14:38 | 25.28768 | 46.56862 | 3867 ft | 218 kts | 253° |
| 2026-04-21 14:39 | 25.28428 | 46.55213 | 3554 ft | 218 kts | 251° |
| 2026-04-21 14:39 | 25.27717 | 46.53750 | 3535 ft | 221 kts | 223° |
| 2026-04-21 14:39 | 25.26446 | 46.52943 | 3548 ft | 209 kts | 193° |
| 2026-04-21 14:39 | 25.25020 | 46.53067 | 3543 ft | 210 kts | 162° |
| 2026-04-21 14:40 | 25.23672 | 46.53689 | 3559 ft | 210 kts | 152° |
| 2026-04-21 14:40 | 25.22399 | 46.54479 | 3560 ft | 213 kts | 150° |
| 2026-04-21 14:40 | 25.21097 | 46.55306 | 3543 ft | 214 kts | 150° |
| 2026-04-21 14:40 | 25.19801 | 46.56130 | 3556 ft | 213 kts | 150° |
| 2026-04-21 14:41 | 25.18549 | 46.56927 | 3527 ft | 210 kts | 150° |
| 2026-04-21 14:41 | 25.17259 | 46.57747 | 3541 ft | 220 kts | 149° |
| 2026-04-21 14:41 | 25.15942 | 46.58581 | 3521 ft | 215 kts | 149° |
| 2026-04-21 14:41 | 25.14713 | 46.59358 | 3510 ft | 193 kts | 147° |
| 2026-04-21 14:42 | 25.13575 | 46.60094 | 3510 ft | 190 kts | 147° |
| 2026-04-21 14:42 | 25.12455 | 46.60803 | 3506 ft | 179 kts | 146° |
| 2026-04-21 14:42 | 25.11367 | 46.61492 | 3508 ft | 183 kts | 147° |
| 2026-04-21 14:42 | 25.10277 | 46.62192 | 3505 ft | 178 kts | 146° |
| 2026-04-21 14:43 | 25.09234 | 46.62855 | 3500 ft | 172 kts | 147° |
| 2026-04-21 14:43 | 25.08213 | 46.63501 | 3496 ft | 167 kts | 146° |
| 2026-04-21 14:43 | 25.07219 | 46.64141 | 3492 ft | 166 kts | 146° |
| 2026-04-21 14:43 | 25.06218 | 46.64780 | 3498 ft | 170 kts | 147° |
| 2026-04-21 14:44 | 25.05188 | 46.65432 | 3491 ft | 168 kts | 146° |
| 2026-04-21 14:44 | 25.04178 | 46.66071 | 3392 ft | 168 kts | 146° |
| 2026-04-21 14:44 | 25.03168 | 46.66717 | 3179 ft | 164 kts | 146° |
| 2026-04-21 14:44 | 25.02182 | 46.67345 | 2976 ft | 162 kts | 146° |
| 2026-04-21 14:45 | 25.01273 | 46.67919 | 2789 ft | 143 kts | 145° |
| 2026-04-21 14:45 | 25.00425 | 46.68471 | 2638 ft | 139 kts | 144° |
| 2026-04-21 14:45 | 24.99588 | 46.68986 | 2478 ft | 138 kts | 145° |
| 2026-04-21 14:45 | 24.98756 | 46.69528 | 2306 ft | 140 kts | 144° |
| 2026-04-21 14:46 | 24.97903 | 46.70061 | 2122 ft | 141 kts | 142° |
| 2026-04-21 14:46 | 24.97117 | 46.70561 | 2043 ft | 94 kts | 152° |
| 2026-04-21 14:46 | 24.96816 | 46.70742 | 2039 ft | 15 kts | 162° |
| 2026-04-21 14:46 | 24.96798 | 46.70747 | 2043 ft | 3 kts | 167° |
| 2026-04-21 14:47 | 24.96757 | 46.70754 | 2040 ft | 9 kts | 171° |
| 2026-04-21 14:47 | 24.96674 | 46.70765 | 2041 ft | 15 kts | 180° |
| 2026-04-21 14:47 | 24.96636 | 46.70763 | 2040 ft | 0 kts | 189° |
| 2026-04-21 14:48 | 24.96629 | 46.70762 | 2044 ft | 3 kts | 190° |
| 2026-04-21 14:49 | 24.96591 | 46.70749 | 2041 ft | 8 kts | 200° |
| 2026-04-21 14:49 | 24.96531 | 46.70700 | 2040 ft | 13 kts | 225° |
| 2026-04-21 14:49 | 24.96473 | 46.70602 | 2044 ft | 18 kts | 241° |
| 2026-04-21 14:49 | 24.96403 | 46.70467 | 2044 ft | 23 kts | 240° |
| 2026-04-21 14:50 | 24.96332 | 46.70381 | 2042 ft | 21 kts | 200° |
| 2026-04-21 14:50 | 24.96269 | 46.70429 | 2043 ft | 10 kts | 137° |
| 2026-04-21 14:50 | 24.96191 | 46.70487 | 2045 ft | 17 kts | 150° |
| 2026-04-21 14:50 | 24.96072 | 46.70564 | 2041 ft | 23 kts | 149° |
| 2026-04-21 14:51 | 24.95986 | 46.70591 | 2039 ft | 5 kts | 214° |
| 2026-04-21 14:51 | 24.95969 | 46.70558 | 2042 ft | 6 kts | 241° |
| 2026-04-21 14:51 | 24.95950 | 46.70520 | 2041 ft | 0 kts | 240° |
| 2026-04-21 14:51 | 24.95948 | 46.70515 | 2040 ft | 2 kts | 240° |
| 2026-04-21 14:52 | 24.95946 | 46.70512 | 2040 ft | 0 kts | 240° |